sensor_id;sensor_type;location;lat;lon;timestamp;P1;durP1;ratioP1;P2;durP2;ratioP2
17259;SDS011;8746;49.230;9.220;2023-07-31T00:01:10;2.13;;;1.60;;
17259;SDS011;8746;49.230;9.220;2023-07-31T00:03:35;1.93;;;1.43;;
17259;SDS011;8746;49.230;9.220;2023-07-31T00:06:01;4.27;;;1.60;;
17259;SDS011;8746;49.230;9.220;2023-07-31T00:08:26;2.57;;;1.70;;
17259;SDS011;8746;49.230;9.220;2023-07-31T00:10:52;3.23;;;1.53;;
17259;SDS011;8746;49.230;9.220;2023-07-31T00:13:18;2.63;;;1.57;;
17259;SDS011;8746;49.230;9.220;2023-07-31T00:15:43;3.13;;;1.40;;
17259;SDS011;8746;49.230;9.220;2023-07-31T00:18:08;2.80;;;1.47;;
17259;SDS011;8746;49.230;9.220;2023-07-31T00:20:34;2.23;;;1.43;;
17259;SDS011;8746;49.230;9.220;2023-07-31T00:22:59;2.63;;;1.60;;
17259;SDS011;8746;49.230;9.220;2023-07-31T00:25:24;2.87;;;1.57;;
17259;SDS011;8746;49.230;9.220;2023-07-31T00:27:49;3.17;;;1.83;;
17259;SDS011;8746;49.230;9.220;2023-07-31T00:30:15;6.23;;;1.40;;
17259;SDS011;8746;49.230;9.220;2023-07-31T00:32:41;3.83;;;1.50;;
17259;SDS011;8746;49.230;9.220;2023-07-31T00:35:06;4.10;;;1.50;;
17259;SDS011;8746;49.230;9.220;2023-07-31T00:37:32;4.23;;;1.40;;
17259;SDS011;8746;49.230;9.220;2023-07-31T00:39:57;2.00;;;1.40;;
17259;SDS011;8746;49.230;9.220;2023-07-31T00:42:22;4.20;;;1.50;;
17259;SDS011;8746;49.230;9.220;2023-07-31T00:44:48;3.17;;;1.40;;
17259;SDS011;8746;49.230;9.220;2023-07-31T00:47:13;3.63;;;1.57;;
17259;SDS011;8746;49.230;9.220;2023-07-31T00:49:38;1.57;;;1.30;;
17259;SDS011;8746;49.230;9.220;2023-07-31T00:52:04;2.53;;;1.40;;
17259;SDS011;8746;49.230;9.220;2023-07-31T00:54:30;2.40;;;1.50;;
17259;SDS011;8746;49.230;9.220;2023-07-31T00:56:55;4.13;;;1.50;;
17259;SDS011;8746;49.230;9.220;2023-07-31T00:59:21;3.07;;;1.40;;
17259;SDS011;8746;49.230;9.220;2023-07-31T01:01:46;2.23;;;1.30;;
17259;SDS011;8746;49.230;9.220;2023-07-31T01:04:12;1.77;;;1.53;;
17259;SDS011;8746;49.230;9.220;2023-07-31T01:06:45;2.70;;;1.70;;
17259;SDS011;8746;49.230;9.220;2023-07-31T01:12:04;3.10;;;1.67;;
17259;SDS011;8746;49.230;9.220;2023-07-31T01:14:32;2.17;;;1.53;;
17259;SDS011;8746;49.230;9.220;2023-07-31T01:16:57;3.17;;;1.50;;
17259;SDS011;8746;49.230;9.220;2023-07-31T01:19:24;5.27;;;1.53;;
17259;SDS011;8746;49.230;9.220;2023-07-31T01:27:29;4.93;;;2.03;;
17259;SDS011;8746;49.230;9.220;2023-07-31T01:30:08;6.47;;;1.83;;
17259;SDS011;8746;49.230;9.220;2023-07-31T01:32:39;3.47;;;1.50;;
17259;SDS011;8746;49.230;9.220;2023-07-31T01:35:06;6.50;;;1.30;;
17259;SDS011;8746;49.230;9.220;2023-07-31T01:37:32;2.50;;;1.53;;
17259;SDS011;8746;49.230;9.220;2023-07-31T01:39:57;2.87;;;1.50;;
17259;SDS011;8746;49.230;9.220;2023-07-31T01:42:22;3.23;;;1.40;;
17259;SDS011;8746;49.230;9.220;2023-07-31T01:44:48;2.77;;;1.43;;
17259;SDS011;8746;49.230;9.220;2023-07-31T01:47:13;2.27;;;1.60;;
17259;SDS011;8746;49.230;9.220;2023-07-31T01:49:38;3.53;;;1.37;;
17259;SDS011;8746;49.230;9.220;2023-07-31T01:52:04;2.07;;;1.57;;
17259;SDS011;8746;49.230;9.220;2023-07-31T01:54:30;3.90;;;1.70;;
17259;SDS011;8746;49.230;9.220;2023-07-31T01:56:55;2.87;;;1.37;;
17259;SDS011;8746;49.230;9.220;2023-07-31T01:59:21;3.03;;;1.70;;
17259;SDS011;8746;49.230;9.220;2023-07-31T02:01:47;3.93;;;1.97;;
17259;SDS011;8746;49.230;9.220;2023-07-31T02:04:12;2.40;;;1.70;;
17259;SDS011;8746;49.230;9.220;2023-07-31T02:06:37;2.87;;;1.30;;
17259;SDS011;8746;49.230;9.220;2023-07-31T02:09:04;4.33;;;1.90;;
17259;SDS011;8746;49.230;9.220;2023-07-31T02:11:29;4.87;;;1.90;;
17259;SDS011;8746;49.230;9.220;2023-07-31T02:13:54;4.00;;;1.80;;
17259;SDS011;8746;49.230;9.220;2023-07-31T02:16:20;3.27;;;1.50;;
17259;SDS011;8746;49.230;9.220;2023-07-31T02:18:45;1.97;;;1.60;;
17259;SDS011;8746;49.230;9.220;2023-07-31T02:21:10;2.70;;;1.50;;
17259;SDS011;8746;49.230;9.220;2023-07-31T02:23:35;2.27;;;1.53;;
17259;SDS011;8746;49.230;9.220;2023-07-31T02:26:01;2.00;;;1.63;;
17259;SDS011;8746;49.230;9.220;2023-07-31T02:28:26;2.50;;;1.77;;
17259;SDS011;8746;49.230;9.220;2023-07-31T02:30:51;1.77;;;1.53;;
17259;SDS011;8746;49.230;9.220;2023-07-31T02:33:17;3.57;;;1.47;;
17259;SDS011;8746;49.230;9.220;2023-07-31T02:35:42;2.33;;;1.60;;
17259;SDS011;8746;49.230;9.220;2023-07-31T02:38:08;2.53;;;1.40;;
17259;SDS011;8746;49.230;9.220;2023-07-31T02:40:33;2.57;;;1.60;;
17259;SDS011;8746;49.230;9.220;2023-07-31T02:42:58;2.87;;;1.60;;
17259;SDS011;8746;49.230;9.220;2023-07-31T02:45:23;1.93;;;1.60;;
17259;SDS011;8746;49.230;9.220;2023-07-31T02:47:49;3.53;;;1.70;;
17259;SDS011;8746;49.230;9.220;2023-07-31T02:50:14;3.73;;;1.33;;
17259;SDS011;8746;49.230;9.220;2023-07-31T02:52:40;1.50;;;1.33;;
17259;SDS011;8746;49.230;9.220;2023-07-31T02:55:05;3.07;;;1.50;;
17259;SDS011;8746;49.230;9.220;2023-07-31T02:57:31;5.07;;;1.53;;
17259;SDS011;8746;49.230;9.220;2023-07-31T02:59:56;1.90;;;1.67;;
17259;SDS011;8746;49.230;9.220;2023-07-31T03:02:22;1.80;;;1.50;;
17259;SDS011;8746;49.230;9.220;2023-07-31T03:04:47;4.57;;;1.80;;
17259;SDS011;8746;49.230;9.220;2023-07-31T03:07:12;3.80;;;1.73;;
17259;SDS011;8746;49.230;9.220;2023-07-31T03:09:38;6.20;;;1.90;;
17259;SDS011;8746;49.230;9.220;2023-07-31T03:12:03;3.33;;;1.90;;
17259;SDS011;8746;49.230;9.220;2023-07-31T03:14:29;4.23;;;1.80;;
17259;SDS011;8746;49.230;9.220;2023-07-31T03:16:54;3.33;;;1.60;;
17259;SDS011;8746;49.230;9.220;2023-07-31T03:19:20;3.60;;;1.80;;
17259;SDS011;8746;49.230;9.220;2023-07-31T03:21:45;2.93;;;1.57;;
17259;SDS011;8746;49.230;9.220;2023-07-31T03:24:10;4.23;;;1.63;;
17259;SDS011;8746;49.230;9.220;2023-07-31T03:26:37;5.63;;;1.80;;
17259;SDS011;8746;49.230;9.220;2023-07-31T03:29:03;2.23;;;1.60;;
17259;SDS011;8746;49.230;9.220;2023-07-31T03:31:28;2.80;;;1.80;;
17259;SDS011;8746;49.230;9.220;2023-07-31T03:33:54;2.10;;;1.50;;
17259;SDS011;8746;49.230;9.220;2023-07-31T03:36:19;2.77;;;1.70;;
17259;SDS011;8746;49.230;9.220;2023-07-31T03:38:45;6.20;;;1.80;;
17259;SDS011;8746;49.230;9.220;2023-07-31T03:41:11;3.00;;;1.50;;
17259;SDS011;8746;49.230;9.220;2023-07-31T03:43:37;2.07;;;1.50;;
17259;SDS011;8746;49.230;9.220;2023-07-31T03:46:02;2.93;;;1.60;;
17259;SDS011;8746;49.230;9.220;2023-07-31T03:48:28;3.23;;;1.67;;
17259;SDS011;8746;49.230;9.220;2023-07-31T03:50:53;3.60;;;1.70;;
17259;SDS011;8746;49.230;9.220;2023-07-31T03:53:19;2.50;;;1.43;;
17259;SDS011;8746;49.230;9.220;2023-07-31T03:55:45;1.53;;;1.40;;
17259;SDS011;8746;49.230;9.220;2023-07-31T03:58:10;2.70;;;1.80;;
17259;SDS011;8746;49.230;9.220;2023-07-31T04:00:36;5.37;;;1.90;;
17259;SDS011;8746;49.230;9.220;2023-07-31T04:03:01;4.30;;;1.73;;
17259;SDS011;8746;49.230;9.220;2023-07-31T04:05:26;2.20;;;1.40;;
17259;SDS011;8746;49.230;9.220;2023-07-31T04:07:52;1.83;;;1.40;;
17259;SDS011;8746;49.230;9.220;2023-07-31T04:10:17;2.87;;;1.70;;
17259;SDS011;8746;49.230;9.220;2023-07-31T04:12:42;4.17;;;2.00;;
17259;SDS011;8746;49.230;9.220;2023-07-31T04:15:07;3.37;;;1.60;;
17259;SDS011;8746;49.230;9.220;2023-07-31T04:17:33;1.93;;;1.50;;
17259;SDS011;8746;49.230;9.220;2023-07-31T04:19:58;3.80;;;1.67;;
17259;SDS011;8746;49.230;9.220;2023-07-31T04:22:24;2.37;;;1.60;;
17259;SDS011;8746;49.230;9.220;2023-07-31T04:24:49;3.23;;;1.43;;
17259;SDS011;8746;49.230;9.220;2023-07-31T04:27:14;1.70;;;1.57;;
17259;SDS011;8746;49.230;9.220;2023-07-31T04:29:39;4.87;;;2.00;;
17259;SDS011;8746;49.230;9.220;2023-07-31T04:32:07;1.77;;;1.60;;
17259;SDS011;8746;49.230;9.220;2023-07-31T04:34:33;2.97;;;1.60;;
17259;SDS011;8746;49.230;9.220;2023-07-31T04:36:58;3.03;;;1.90;;
17259;SDS011;8746;49.230;9.220;2023-07-31T04:39:23;3.60;;;1.80;;
17259;SDS011;8746;49.230;9.220;2023-07-31T04:41:48;4.13;;;1.50;;
17259;SDS011;8746;49.230;9.220;2023-07-31T04:44:14;2.40;;;1.80;;
17259;SDS011;8746;49.230;9.220;2023-07-31T04:46:39;3.43;;;1.73;;
17259;SDS011;8746;49.230;9.220;2023-07-31T04:49:04;1.97;;;1.67;;
17259;SDS011;8746;49.230;9.220;2023-07-31T04:51:30;4.60;;;1.80;;
17259;SDS011;8746;49.230;9.220;2023-07-31T04:53:56;1.70;;;1.50;;
17259;SDS011;8746;49.230;9.220;2023-07-31T04:56:21;3.13;;;1.67;;
17259;SDS011;8746;49.230;9.220;2023-07-31T04:58:47;2.50;;;1.70;;
17259;SDS011;8746;49.230;9.220;2023-07-31T05:01:12;2.33;;;1.50;;
17259;SDS011;8746;49.230;9.220;2023-07-31T05:03:37;2.87;;;1.80;;
17259;SDS011;8746;49.230;9.220;2023-07-31T05:06:03;3.60;;;1.60;;
17259;SDS011;8746;49.230;9.220;2023-07-31T05:08:28;2.47;;;1.53;;
17259;SDS011;8746;49.230;9.220;2023-07-31T05:10:53;2.70;;;1.90;;
17259;SDS011;8746;49.230;9.220;2023-07-31T05:13:19;2.47;;;1.70;;
17259;SDS011;8746;49.230;9.220;2023-07-31T05:15:45;2.33;;;1.43;;
17259;SDS011;8746;49.230;9.220;2023-07-31T05:18:10;2.37;;;1.90;;
17259;SDS011;8746;49.230;9.220;2023-07-31T05:20:35;3.60;;;1.90;;
17259;SDS011;8746;49.230;9.220;2023-07-31T05:23:01;2.67;;;1.70;;
17259;SDS011;8746;49.230;9.220;2023-07-31T05:25:26;2.90;;;1.77;;
17259;SDS011;8746;49.230;9.220;2023-07-31T05:27:51;3.57;;;1.90;;
17259;SDS011;8746;49.230;9.220;2023-07-31T05:30:17;3.73;;;1.93;;
17259;SDS011;8746;49.230;9.220;2023-07-31T05:32:42;4.10;;;1.83;;
17259;SDS011;8746;49.230;9.220;2023-07-31T05:35:08;5.37;;;1.90;;
17259;SDS011;8746;49.230;9.220;2023-07-31T05:37:34;3.17;;;1.77;;
17259;SDS011;8746;49.230;9.220;2023-07-31T05:39:59;4.30;;;2.33;;
17259;SDS011;8746;49.230;9.220;2023-07-31T05:42:24;6.40;;;2.10;;
17259;SDS011;8746;49.230;9.220;2023-07-31T05:44:49;2.23;;;1.67;;
17259;SDS011;8746;49.230;9.220;2023-07-31T05:47:15;2.77;;;1.93;;
17259;SDS011;8746;49.230;9.220;2023-07-31T05:49:40;2.43;;;1.70;;
17259;SDS011;8746;49.230;9.220;2023-07-31T05:52:06;6.57;;;1.90;;
17259;SDS011;8746;49.230;9.220;2023-07-31T05:54:32;3.23;;;1.80;;
17259;SDS011;8746;49.230;9.220;2023-07-31T05:56:58;4.07;;;2.00;;
17259;SDS011;8746;49.230;9.220;2023-07-31T05:59:23;2.03;;;1.50;;
17259;SDS011;8746;49.230;9.220;2023-07-31T06:01:49;3.57;;;1.90;;
17259;SDS011;8746;49.230;9.220;2023-07-31T06:04:14;2.77;;;1.90;;
17259;SDS011;8746;49.230;9.220;2023-07-31T06:06:39;2.47;;;1.60;;
17259;SDS011;8746;49.230;9.220;2023-07-31T06:09:05;2.33;;;1.87;;
17259;SDS011;8746;49.230;9.220;2023-07-31T06:11:30;2.07;;;1.50;;
17259;SDS011;8746;49.230;9.220;2023-07-31T06:13:55;3.43;;;2.07;;
17259;SDS011;8746;49.230;9.220;2023-07-31T06:16:21;2.80;;;1.70;;
17259;SDS011;8746;49.230;9.220;2023-07-31T06:18:46;3.90;;;1.70;;
17259;SDS011;8746;49.230;9.220;2023-07-31T06:21:12;2.13;;;1.63;;
17259;SDS011;8746;49.230;9.220;2023-07-31T06:23:37;3.50;;;2.00;;
17259;SDS011;8746;49.230;9.220;2023-07-31T06:26:02;4.77;;;1.90;;
17259;SDS011;8746;49.230;9.220;2023-07-31T06:28:28;3.00;;;1.90;;
17259;SDS011;8746;49.230;9.220;2023-07-31T06:30:54;4.30;;;1.87;;
17259;SDS011;8746;49.230;9.220;2023-07-31T06:33:20;3.10;;;2.00;;
17259;SDS011;8746;49.230;9.220;2023-07-31T06:35:45;3.77;;;2.10;;
17259;SDS011;8746;49.230;9.220;2023-07-31T06:38:11;4.77;;;1.60;;
17259;SDS011;8746;49.230;9.220;2023-07-31T06:40:36;3.85;;;2.08;;
17259;SDS011;8746;49.230;9.220;2023-07-31T06:43:01;4.47;;;1.45;;
17259;SDS011;8746;49.230;9.220;2023-07-31T06:45:32;3.80;;;2.10;;
17259;SDS011;8746;49.230;9.220;2023-07-31T06:48:01;5.67;;;2.20;;
17259;SDS011;8746;49.230;9.220;2023-07-31T06:50:30;3.90;;;1.75;;
17259;SDS011;8746;49.230;9.220;2023-07-31T06:52:56;2.45;;;1.73;;
17259;SDS011;8746;49.230;9.220;2023-07-31T06:55:22;5.07;;;2.08;;
17259;SDS011;8746;49.230;9.220;2023-07-31T06:57:48;4.18;;;2.00;;
17259;SDS011;8746;49.230;9.220;2023-07-31T07:00:15;4.85;;;1.90;;
17259;SDS011;8746;49.230;9.220;2023-07-31T07:02:41;3.30;;;1.92;;
17259;SDS011;8746;49.230;9.220;2023-07-31T07:05:07;4.82;;;1.70;;
17259;SDS011;8746;49.230;9.220;2023-07-31T07:07:33;4.60;;;2.00;;
17259;SDS011;8746;49.230;9.220;2023-07-31T07:09:58;4.18;;;2.03;;
17259;SDS011;8746;49.230;9.220;2023-07-31T07:12:29;4.50;;;2.00;;
17259;SDS011;8746;49.230;9.220;2023-07-31T07:14:54;2.33;;;1.42;;
17259;SDS011;8746;49.230;9.220;2023-07-31T07:17:20;5.05;;;1.92;;
17259;SDS011;8746;49.230;9.220;2023-07-31T07:19:45;2.97;;;1.88;;
17259;SDS011;8746;49.230;9.220;2023-07-31T07:22:13;4.00;;;2.03;;
17259;SDS011;8746;49.230;9.220;2023-07-31T07:24:38;3.42;;;1.70;;
17259;SDS011;8746;49.230;9.220;2023-07-31T07:27:03;3.58;;;1.75;;
17259;SDS011;8746;49.230;9.220;2023-07-31T07:29:29;3.95;;;1.88;;
17259;SDS011;8746;49.230;9.220;2023-07-31T07:31:55;4.07;;;1.63;;
17259;SDS011;8746;49.230;9.220;2023-07-31T07:34:22;3.70;;;2.10;;
17259;SDS011;8746;49.230;9.220;2023-07-31T07:36:49;2.40;;;1.80;;
17259;SDS011;8746;49.230;9.220;2023-07-31T07:39:14;2.28;;;1.90;;
17259;SDS011;8746;49.230;9.220;2023-07-31T07:41:40;3.97;;;2.00;;
17259;SDS011;8746;49.230;9.220;2023-07-31T07:44:05;3.42;;;1.70;;
17259;SDS011;8746;49.230;9.220;2023-07-31T07:46:30;2.70;;;1.75;;
17259;SDS011;8746;49.230;9.220;2023-07-31T07:48:56;3.22;;;1.70;;
17259;SDS011;8746;49.230;9.220;2023-07-31T07:51:21;4.63;;;1.67;;
17259;SDS011;8746;49.230;9.220;2023-07-31T07:53:46;4.80;;;1.83;;
17259;SDS011;8746;49.230;9.220;2023-07-31T07:56:12;3.38;;;1.88;;
17259;SDS011;8746;49.230;9.220;2023-07-31T07:58:37;2.95;;;1.60;;
17259;SDS011;8746;49.230;9.220;2023-07-31T08:01:02;1.98;;;1.58;;
17259;SDS011;8746;49.230;9.220;2023-07-31T08:03:28;4.68;;;1.80;;
17259;SDS011;8746;49.230;9.220;2023-07-31T08:05:57;3.63;;;2.20;;
17259;SDS011;8746;49.230;9.220;2023-07-31T08:08:23;2.15;;;1.67;;
17259;SDS011;8746;49.230;9.220;2023-07-31T08:10:48;3.58;;;2.10;;
17259;SDS011;8746;49.230;9.220;2023-07-31T08:13:13;3.65;;;2.00;;
17259;SDS011;8746;49.230;9.220;2023-07-31T08:15:41;4.93;;;2.22;;
17259;SDS011;8746;49.230;9.220;2023-07-31T08:18:06;3.50;;;1.60;;
17259;SDS011;8746;49.230;9.220;2023-07-31T08:20:32;2.97;;;1.70;;
17259;SDS011;8746;49.230;9.220;2023-07-31T08:22:57;4.20;;;2.03;;
17259;SDS011;8746;49.230;9.220;2023-07-31T08:25:23;3.95;;;1.85;;
17259;SDS011;8746;49.230;9.220;2023-07-31T08:27:48;2.45;;;1.98;;
17259;SDS011;8746;49.230;9.220;2023-07-31T08:30:13;2.53;;;1.83;;
17259;SDS011;8746;49.230;9.220;2023-07-31T08:32:38;5.45;;;2.15;;
17259;SDS011;8746;49.230;9.220;2023-07-31T08:35:04;4.93;;;2.25;;
17259;SDS011;8746;49.230;9.220;2023-07-31T08:37:29;3.13;;;1.77;;
17259;SDS011;8746;49.230;9.220;2023-07-31T08:39:55;4.40;;;2.17;;
17259;SDS011;8746;49.230;9.220;2023-07-31T08:42:20;3.92;;;2.00;;
17259;SDS011;8746;49.230;9.220;2023-07-31T08:44:46;5.03;;;2.13;;
17259;SDS011;8746;49.230;9.220;2023-07-31T08:47:13;3.72;;;1.90;;
17259;SDS011;8746;49.230;9.220;2023-07-31T08:49:39;2.97;;;1.67;;
17259;SDS011;8746;49.230;9.220;2023-07-31T08:52:07;4.30;;;1.80;;
17259;SDS011;8746;49.230;9.220;2023-07-31T08:54:32;4.93;;;2.10;;
17259;SDS011;8746;49.230;9.220;2023-07-31T08:56:58;3.75;;;1.90;;
17259;SDS011;8746;49.230;9.220;2023-07-31T08:59:25;4.35;;;2.00;;
17259;SDS011;8746;49.230;9.220;2023-07-31T09:01:54;3.42;;;1.98;;
17259;SDS011;8746;49.230;9.220;2023-07-31T09:04:22;3.78;;;2.00;;
17259;SDS011;8746;49.230;9.220;2023-07-31T09:06:48;3.20;;;2.03;;
17259;SDS011;8746;49.230;9.220;2023-07-31T09:09:15;3.75;;;1.90;;
17259;SDS011;8746;49.230;9.220;2023-07-31T09:11:41;3.75;;;1.92;;
17259;SDS011;8746;49.230;9.220;2023-07-31T09:14:07;2.97;;;1.83;;
17259;SDS011;8746;49.230;9.220;2023-07-31T09:16:34;3.47;;;1.98;;
17259;SDS011;8746;49.230;9.220;2023-07-31T09:19:00;4.35;;;1.92;;
17259;SDS011;8746;49.230;9.220;2023-07-31T09:21:27;3.05;;;1.70;;
17259;SDS011;8746;49.230;9.220;2023-07-31T09:23:53;3.72;;;2.05;;
17259;SDS011;8746;49.230;9.220;2023-07-31T09:26:34;4.55;;;2.10;;
17259;SDS011;8746;49.230;9.220;2023-07-31T09:29:03;5.22;;;1.95;;
17259;SDS011;8746;49.230;9.220;2023-07-31T09:31:33;4.97;;;1.73;;
17259;SDS011;8746;49.230;9.220;2023-07-31T09:34:04;3.42;;;2.10;;
17259;SDS011;8746;49.230;9.220;2023-07-31T09:36:30;3.90;;;2.03;;
17259;SDS011;8746;49.230;9.220;2023-07-31T09:39:01;3.25;;;2.10;;
17259;SDS011;8746;49.230;9.220;2023-07-31T09:41:28;4.10;;;2.03;;
17259;SDS011;8746;49.230;9.220;2023-07-31T09:43:54;3.92;;;2.08;;
17259;SDS011;8746;49.230;9.220;2023-07-31T09:46:20;4.03;;;2.20;;
17259;SDS011;8746;49.230;9.220;2023-07-31T09:48:46;4.78;;;2.13;;
17259;SDS011;8746;49.230;9.220;2023-07-31T09:51:12;5.00;;;2.00;;
17259;SDS011;8746;49.230;9.220;2023-07-31T09:53:37;3.58;;;2.00;;
17259;SDS011;8746;49.230;9.220;2023-07-31T09:56:02;4.10;;;1.95;;
17259;SDS011;8746;49.230;9.220;2023-07-31T09:58:29;3.55;;;1.98;;
17259;SDS011;8746;49.230;9.220;2023-07-31T10:00:59;4.30;;;2.20;;
17259;SDS011;8746;49.230;9.220;2023-07-31T10:03:27;3.58;;;2.10;;
17259;SDS011;8746;49.230;9.220;2023-07-31T10:05:55;3.58;;;2.38;;
17259;SDS011;8746;49.230;9.220;2023-07-31T10:08:22;3.97;;;2.13;;
17259;SDS011;8746;49.230;9.220;2023-07-31T10:10:54;3.60;;;2.45;;
17259;SDS011;8746;49.230;9.220;2023-07-31T10:13:20;8.10;;;2.40;;
17259;SDS011;8746;49.230;9.220;2023-07-31T10:15:47;2.17;;;1.70;;
17259;SDS011;8746;49.230;9.220;2023-07-31T10:18:13;2.70;;;2.00;;
17259;SDS011;8746;49.230;9.220;2023-07-31T10:20:39;5.50;;;1.98;;
17259;SDS011;8746;49.230;9.220;2023-07-31T10:23:05;3.42;;;2.00;;
17259;SDS011;8746;49.230;9.220;2023-07-31T10:25:31;4.20;;;2.05;;
17259;SDS011;8746;49.230;9.220;2023-07-31T10:27:57;3.38;;;1.90;;
17259;SDS011;8746;49.230;9.220;2023-07-31T10:30:25;3.90;;;2.20;;
17259;SDS011;8746;49.230;9.220;2023-07-31T10:32:54;5.25;;;2.45;;
17259;SDS011;8746;49.230;9.220;2023-07-31T10:35:20;4.38;;;1.90;;
17259;SDS011;8746;49.230;9.220;2023-07-31T10:37:47;5.85;;;2.40;;
17259;SDS011;8746;49.230;9.220;2023-07-31T10:40:16;2.92;;;2.35;;
17259;SDS011;8746;49.230;9.220;2023-07-31T10:42:50;2.72;;;2.00;;
17259;SDS011;8746;49.230;9.220;2023-07-31T10:45:50;4.47;;;1.90;;
17259;SDS011;8746;49.230;9.220;2023-07-31T10:48:12;4.93;;;2.60;;
17259;SDS011;8746;49.230;9.220;2023-07-31T10:50:49;3.55;;;2.03;;
17259;SDS011;8746;49.230;9.220;2023-07-31T10:53:23;3.20;;;2.25;;
17259;SDS011;8746;49.230;9.220;2023-07-31T10:55:56;3.08;;;2.00;;
17259;SDS011;8746;49.230;9.220;2023-07-31T10:58:23;5.82;;;2.13;;
17259;SDS011;8746;49.230;9.220;2023-07-31T11:00:48;3.78;;;2.20;;
17259;SDS011;8746;49.230;9.220;2023-07-31T11:03:15;3.75;;;2.25;;
17259;SDS011;8746;49.230;9.220;2023-07-31T11:08:35;2.38;;;1.90;;
17259;SDS011;8746;49.230;9.220;2023-07-31T11:11:06;3.90;;;2.50;;
17259;SDS011;8746;49.230;9.220;2023-07-31T11:13:39;2.72;;;2.30;;
17259;SDS011;8746;49.230;9.220;2023-07-31T11:16:25;3.25;;;2.45;;
17259;SDS011;8746;49.230;9.220;2023-07-31T11:18:50;4.55;;;2.30;;
17259;SDS011;8746;49.230;9.220;2023-07-31T11:21:22;5.38;;;2.33;;
17259;SDS011;8746;49.230;9.220;2023-07-31T11:23:49;2.80;;;2.20;;
17259;SDS011;8746;49.230;9.220;2023-07-31T11:26:21;4.50;;;2.03;;
17259;SDS011;8746;49.230;9.220;2023-07-31T11:28:49;5.22;;;2.38;;
17259;SDS011;8746;49.230;9.220;2023-07-31T11:31:15;2.63;;;2.35;;
17259;SDS011;8746;49.230;9.220;2023-07-31T11:33:41;5.60;;;2.13;;
17259;SDS011;8746;49.230;9.220;2023-07-31T11:36:13;4.25;;;2.13;;
17259;SDS011;8746;49.230;9.220;2023-07-31T11:38:40;4.82;;;2.60;;
17259;SDS011;8746;49.230;9.220;2023-07-31T11:41:05;3.42;;;2.40;;
17259;SDS011;8746;49.230;9.220;2023-07-31T11:43:31;4.80;;;2.35;;
17259;SDS011;8746;49.230;9.220;2023-07-31T11:45:57;3.78;;;2.25;;
17259;SDS011;8746;49.230;9.220;2023-07-31T11:48:25;4.95;;;2.10;;
17259;SDS011;8746;49.230;9.220;2023-07-31T11:51:01;4.80;;;2.40;;
17259;SDS011;8746;49.230;9.220;2023-07-31T11:53:29;3.55;;;2.00;;
17259;SDS011;8746;49.230;9.220;2023-07-31T11:55:59;4.13;;;2.28;;
17259;SDS011;8746;49.230;9.220;2023-07-31T11:58:25;6.75;;;2.42;;
17259;SDS011;8746;49.230;9.220;2023-07-31T12:00:52;3.85;;;2.10;;
17259;SDS011;8746;49.230;9.220;2023-07-31T12:03:18;3.70;;;2.30;;
17259;SDS011;8746;49.230;9.220;2023-07-31T12:05:44;4.43;;;2.28;;
17259;SDS011;8746;49.230;9.220;2023-07-31T12:08:10;4.43;;;2.20;;
17259;SDS011;8746;49.230;9.220;2023-07-31T12:10:37;4.07;;;2.10;;
17259;SDS011;8746;49.230;9.220;2023-07-31T12:13:04;4.90;;;2.63;;
17259;SDS011;8746;49.230;9.220;2023-07-31T12:15:34;4.28;;;2.42;;
17259;SDS011;8746;49.230;9.220;2023-07-31T12:18:08;3.55;;;2.00;;
17259;SDS011;8746;49.230;9.220;2023-07-31T12:20:35;3.47;;;2.10;;
17259;SDS011;8746;49.230;9.220;2023-07-31T12:23:04;4.28;;;2.20;;
17259;SDS011;8746;49.230;9.220;2023-07-31T12:25:30;2.97;;;1.80;;
17259;SDS011;8746;49.230;9.220;2023-07-31T12:28:05;4.68;;;2.20;;
17259;SDS011;8746;49.230;9.220;2023-07-31T12:30:36;5.93;;;2.22;;
17259;SDS011;8746;49.230;9.220;2023-07-31T12:33:03;2.47;;;1.90;;
17259;SDS011;8746;49.230;9.220;2023-07-31T12:35:36;2.80;;;2.15;;
17259;SDS011;8746;49.230;9.220;2023-07-31T12:38:02;3.33;;;2.03;;
17259;SDS011;8746;49.230;9.220;2023-07-31T12:40:28;4.60;;;2.33;;
17259;SDS011;8746;49.230;9.220;2023-07-31T12:42:53;4.05;;;2.03;;
17259;SDS011;8746;49.230;9.220;2023-07-31T12:45:19;4.90;;;2.10;;
17259;SDS011;8746;49.230;9.220;2023-07-31T12:47:45;3.65;;;2.10;;
17259;SDS011;8746;49.230;9.220;2023-07-31T12:50:11;4.45;;;2.10;;
17259;SDS011;8746;49.230;9.220;2023-07-31T12:52:36;4.90;;;2.33;;
17259;SDS011;8746;49.230;9.220;2023-07-31T12:55:02;4.97;;;2.22;;
17259;SDS011;8746;49.230;9.220;2023-07-31T12:57:27;4.35;;;2.08;;
17259;SDS011;8746;49.230;9.220;2023-07-31T12:59:52;3.45;;;2.10;;
17259;SDS011;8746;49.230;9.220;2023-07-31T13:02:17;5.07;;;2.20;;
17259;SDS011;8746;49.230;9.220;2023-07-31T13:04:43;4.35;;;2.22;;
17259;SDS011;8746;49.230;9.220;2023-07-31T13:07:09;3.75;;;2.50;;
17259;SDS011;8746;49.230;9.220;2023-07-31T13:09:34;4.13;;;2.13;;
17259;SDS011;8746;49.230;9.220;2023-07-31T13:11:59;5.88;;;2.33;;
17259;SDS011;8746;49.230;9.220;2023-07-31T13:14:25;3.47;;;2.20;;
17259;SDS011;8746;49.230;9.220;2023-07-31T13:16:50;3.63;;;1.92;;
17259;SDS011;8746;49.230;9.220;2023-07-31T13:19:15;3.70;;;2.00;;
17259;SDS011;8746;49.230;9.220;2023-07-31T13:21:41;4.28;;;2.28;;
17259;SDS011;8746;49.230;9.220;2023-07-31T13:24:06;2.67;;;1.92;;
17259;SDS011;8746;49.230;9.220;2023-07-31T13:26:31;4.70;;;2.05;;
17259;SDS011;8746;49.230;9.220;2023-07-31T13:28:57;3.38;;;2.20;;
17259;SDS011;8746;49.230;9.220;2023-07-31T13:31:22;3.97;;;2.10;;
17259;SDS011;8746;49.230;9.220;2023-07-31T13:33:48;2.22;;;1.75;;
17259;SDS011;8746;49.230;9.220;2023-07-31T13:36:13;2.47;;;1.80;;
17259;SDS011;8746;49.230;9.220;2023-07-31T13:38:39;4.13;;;2.33;;
17259;SDS011;8746;49.230;9.220;2023-07-31T13:41:04;3.47;;;1.90;;
17259;SDS011;8746;49.230;9.220;2023-07-31T13:43:30;3.30;;;2.22;;
17259;SDS011;8746;49.230;9.220;2023-07-31T13:45:56;4.20;;;2.05;;
17259;SDS011;8746;49.230;9.220;2023-07-31T13:48:21;4.45;;;2.30;;
17259;SDS011;8746;49.230;9.220;2023-07-31T13:50:46;2.10;;;1.90;;
17259;SDS011;8746;49.230;9.220;2023-07-31T13:53:12;3.47;;;2.15;;
17259;SDS011;8746;49.230;9.220;2023-07-31T13:55:37;4.05;;;2.55;;
17259;SDS011;8746;49.230;9.220;2023-07-31T13:58:03;2.95;;;2.08;;
17259;SDS011;8746;49.230;9.220;2023-07-31T14:00:28;3.10;;;2.20;;
17259;SDS011;8746;49.230;9.220;2023-07-31T14:02:54;3.90;;;2.10;;
17259;SDS011;8746;49.230;9.220;2023-07-31T14:05:19;3.30;;;1.90;;
17259;SDS011;8746;49.230;9.220;2023-07-31T14:07:45;3.17;;;2.10;;
17259;SDS011;8746;49.230;9.220;2023-07-31T14:10:10;4.85;;;2.15;;
17259;SDS011;8746;49.230;9.220;2023-07-31T14:12:36;3.03;;;2.15;;
17259;SDS011;8746;49.230;9.220;2023-07-31T14:15:01;4.78;;;2.15;;
17259;SDS011;8746;49.230;9.220;2023-07-31T14:17:27;3.70;;;1.98;;
17259;SDS011;8746;49.230;9.220;2023-07-31T14:19:53;3.13;;;1.77;;
17259;SDS011;8746;49.230;9.220;2023-07-31T14:22:28;2.40;;;1.70;;
17259;SDS011;8746;49.230;9.220;2023-07-31T14:24:58;3.05;;;2.17;;
17259;SDS011;8746;49.230;9.220;2023-07-31T14:27:23;2.55;;;2.00;;
17259;SDS011;8746;49.230;9.220;2023-07-31T14:29:48;3.15;;;2.08;;
17259;SDS011;8746;49.230;9.220;2023-07-31T14:32:14;2.78;;;1.90;;
17259;SDS011;8746;49.230;9.220;2023-07-31T14:34:39;3.30;;;2.15;;
17259;SDS011;8746;49.230;9.220;2023-07-31T14:37:05;5.15;;;1.98;;
17259;SDS011;8746;49.230;9.220;2023-07-31T14:39:30;2.83;;;1.90;;
17259;SDS011;8746;49.230;9.220;2023-07-31T14:41:55;2.75;;;2.22;;
17259;SDS011;8746;49.230;9.220;2023-07-31T14:44:21;3.15;;;2.30;;
17259;SDS011;8746;49.230;9.220;2023-07-31T14:46:46;5.85;;;2.20;;
17259;SDS011;8746;49.230;9.220;2023-07-31T14:49:11;2.95;;;2.47;;
17259;SDS011;8746;49.230;9.220;2023-07-31T14:51:36;2.80;;;2.03;;
17259;SDS011;8746;49.230;9.220;2023-07-31T14:54:02;3.13;;;1.95;;
17259;SDS011;8746;49.230;9.220;2023-07-31T14:56:27;3.35;;;2.22;;
17259;SDS011;8746;49.230;9.220;2023-07-31T14:58:53;4.07;;;1.92;;
17259;SDS011;8746;49.230;9.220;2023-07-31T15:01:18;4.03;;;2.03;;
17259;SDS011;8746;49.230;9.220;2023-07-31T15:03:43;3.67;;;2.17;;
17259;SDS011;8746;49.230;9.220;2023-07-31T15:06:09;5.20;;;1.95;;